createdAt,value
2023-07-08T00:02:18.591Z,72.00
2023-07-08T00:04:46.567Z,72.90
2023-07-08T00:07:17.840Z,72.20
2023-07-08T00:09:47.160Z,72.50
2023-07-08T00:12:15.158Z,72.80
2023-07-08T00:14:43.168Z,73.00
2023-07-08T00:17:14.392Z,73.10
2023-07-08T00:19:42.468Z,73.40
2023-07-08T00:22:14.146Z,73.50
2023-07-08T00:24:43.292Z,73.80
2023-07-08T00:27:15.175Z,74.10
2023-07-08T00:29:43.236Z,74.10
2023-07-08T00:32:14.794Z,73.90
2023-07-08T00:34:43.226Z,74.30
2023-07-08T00:37:13.895Z,74.50
2023-07-08T00:39:42.511Z,74.40
2023-07-08T00:42:18.844Z,74.60
2023-07-08T00:44:46.977Z,74.90
2023-07-08T00:47:17.148Z,74.90
2023-07-08T00:49:49.458Z,74.90
2023-07-08T00:52:23.910Z,75.40
2023-07-08T00:54:53.474Z,75.50
2023-07-08T00:57:24.526Z,75.60
2023-07-08T00:59:57.161Z,75.80
2023-07-08T01:02:28.614Z,76.00
2023-07-08T01:05:03.727Z,76.00
2023-07-08T01:07:34.204Z,76.40
2023-07-08T01:10:05.907Z,76.80
2023-07-08T01:12:38.917Z,77.00
2023-07-08T01:15:08.848Z,77.00
2023-07-08T01:17:37.082Z,76.80
2023-07-08T01:20:07.812Z,77.00
2023-07-08T01:22:39.248Z,77.40
2023-07-08T01:25:09.482Z,78.00
2023-07-08T01:27:42.043Z,78.60
2023-07-08T01:30:12.327Z,78.80
2023-07-08T01:32:45.355Z,78.70
2023-07-08T01:35:14.663Z,79.00
2023-07-08T01:37:48.718Z,79.50
2023-07-08T01:40:27.626Z,79.90
2023-07-08T01:42:56.249Z,80.40
2023-07-08T01:45:26.707Z,80.00
2023-07-08T01:47:58.702Z,80.00
2023-07-08T01:50:28.211Z,79.60
2023-07-08T01:53:01.238Z,79.90
2023-07-08T01:55:31.447Z,79.80
2023-07-08T01:57:59.972Z,80.10
2023-07-08T02:00:27.905Z,80.10
2023-07-08T02:02:56.018Z,80.50
2023-07-08T02:05:25.083Z,81.30
2023-07-08T02:07:53.103Z,80.80
2023-07-08T02:10:22.562Z,81.00
2023-07-08T02:12:50.578Z,81.20
2023-07-08T02:15:19.032Z,81.30
2023-07-08T02:17:47.021Z,81.50
2023-07-08T02:20:15.118Z,81.70
2023-07-08T02:22:43.112Z,81.90
2023-07-08T02:25:11.385Z,82.10
2023-07-08T02:27:41.268Z,81.90
2023-07-08T02:30:10.111Z,81.90
2023-07-08T02:32:40.196Z,82.10
2023-07-08T02:35:09.372Z,82.10
2023-07-08T02:37:37.429Z,82.60
2023-07-08T02:40:05.850Z,82.60
2023-07-08T02:42:33.780Z,83.00
2023-07-08T02:45:03.393Z,83.10
2023-07-08T02:47:31.314Z,84.00
2023-07-08T02:49:59.694Z,83.70
2023-07-08T02:52:27.686Z,84.00
2023-07-08T02:54:55.595Z,84.30
2023-07-08T02:57:23.710Z,84.30
2023-07-08T02:59:51.811Z,84.70
2023-07-08T03:02:21.185Z,85.10
2023-07-08T03:04:50.968Z,85.40
2023-07-08T03:07:19.543Z,85.40
2023-07-08T03:09:47.591Z,85.90
2023-07-08T03:12:15.579Z,86.30
2023-07-08T03:14:43.510Z,86.90
2023-07-08T03:17:11.622Z,87.40
2023-07-08T03:19:41.137Z,87.60
2023-07-08T03:22:09.042Z,88.30
2023-07-08T03:24:37.527Z,89.00
2023-07-08T03:27:08.938Z,88.70
2023-07-08T03:29:38.211Z,88.90
2023-07-08T03:32:07.571Z,89.30
2023-07-08T03:34:35.623Z,89.70
2023-07-08T03:37:05.577Z,89.60
2023-07-08T03:39:33.944Z,90.20
2023-07-08T03:42:02.579Z,90.40
2023-07-08T03:44:30.603Z,90.40
2023-07-08T03:46:59.067Z,90.40
2023-07-08T03:49:27.596Z,90.60
2023-07-08T03:51:56.547Z,90.80
2023-07-08T03:54:27.423Z,90.80
2023-07-08T03:56:55.543Z,90.80
2023-07-08T03:59:23.469Z,91.00
2023-07-08T04:01:51.590Z,91.00
2023-07-08T04:04:19.814Z,91.30
2023-07-08T04:06:48.059Z,91.30
2023-07-08T04:09:16.105Z,91.30
2023-07-08T04:11:45.629Z,91.50
2023-07-08T04:14:14.702Z,91.40
2023-07-08T04:16:50.715Z,91.50
2023-07-08T04:19:19.068Z,91.80
2023-07-08T04:21:47.740Z,91.90
2023-07-08T04:24:17.664Z,92.20
2023-07-08T04:26:49.939Z,92.30
2023-07-08T04:29:20.248Z,92.30
2023-07-08T04:31:48.195Z,92.20
2023-07-08T04:34:17.633Z,92.20
2023-07-08T04:36:46.543Z,92.30
2023-07-08T04:39:15.385Z,92.40
2023-07-08T04:41:44.900Z,92.50
2023-07-08T04:44:14.881Z,92.70
2023-07-08T04:46:52.267Z,93.20
2023-07-08T04:49:20.781Z,94.40
2023-07-08T04:51:49.372Z,95.60
2023-07-08T04:54:17.481Z,94.30
2023-07-08T04:56:48.235Z,95.20
2023-07-08T04:59:19.970Z,95.10
2023-07-08T05:01:49.967Z,94.90
2023-07-08T05:04:19.958Z,95.20
2023-07-08T05:06:48.455Z,95.30
2023-07-08T05:09:17.712Z,95.30
2023-07-08T05:11:46.416Z,95.40
2023-07-08T05:14:15.265Z,95.90
2023-07-08T05:16:44.575Z,95.70
2023-07-08T05:19:12.767Z,95.90
2023-07-08T05:21:40.784Z,96.10
2023-07-08T05:24:09.654Z,96.10
2023-07-08T05:26:37.849Z,96.60
2023-07-08T05:29:06.237Z,96.90
2023-07-08T05:34:09.041Z,97.30
2023-07-08T05:36:37.063Z,97.50
2023-07-08T05:39:05.337Z,97.40
2023-07-08T05:41:33.332Z,97.70
2023-07-08T05:44:01.487Z,97.40
2023-07-08T05:46:29.660Z,97.20
2023-07-08T05:48:59.723Z,97.10
2023-07-08T05:51:31.494Z,97.20
2023-07-08T05:53:59.780Z,96.90
2023-07-08T05:56:27.774Z,96.90
2023-07-08T05:58:55.857Z,96.90
2023-07-08T06:01:23.986Z,96.80
2023-07-08T06:03:52.208Z,96.60
2023-07-08T06:06:20.578Z,96.40
2023-07-08T06:08:49.967Z,96.50
2023-07-08T06:11:18.282Z,95.80
2023-07-08T06:13:46.478Z,95.80
2023-07-08T06:16:18.227Z,95.70
2023-07-08T06:18:51.174Z,95.20
2023-07-08T06:21:19.318Z,94.90
2023-07-08T06:23:47.438Z,94.90
2023-07-08T06:26:16.913Z,94.90
2023-07-08T06:28:45.126Z,94.80
2023-07-08T06:31:13.105Z,94.60
2023-07-08T06:33:41.179Z,94.70
2023-07-08T06:36:09.182Z,94.80
2023-07-08T06:38:37.293Z,94.60
2023-07-08T06:41:05.247Z,93.70
2023-07-08T06:43:34.535Z,93.80
2023-07-08T06:46:02.663Z,93.80
2023-07-08T06:48:30.867Z,93.40
2023-07-08T06:50:59.318Z,93.50
2023-07-08T06:53:27.686Z,92.90
2023-07-08T06:55:55.782Z,92.70
2023-07-08T06:58:23.909Z,92.60
2023-07-08T07:00:53.537Z,92.60
2023-07-08T07:03:21.596Z,92.60
2023-07-08T07:05:49.498Z,92.70
2023-07-08T07:08:17.439Z,93.10
2023-07-08T07:10:45.632Z,93.00
2023-07-08T07:13:13.562Z,93.00
2023-07-08T07:15:41.990Z,92.80
2023-07-08T07:18:11.585Z,92.90
2023-07-08T07:20:40.215Z,92.80
2023-07-08T07:23:08.232Z,92.50
2023-07-08T07:25:37.354Z,92.30
2023-07-08T07:28:06.198Z,92.10
2023-07-08T07:30:34.438Z,91.90
2023-07-08T07:33:02.899Z,91.70
2023-07-08T07:35:32.454Z,91.30
2023-07-08T07:38:00.401Z,91.40
2023-07-08T07:40:28.470Z,91.30
2023-07-08T07:42:56.383Z,91.50
2023-07-08T07:45:24.469Z,91.50
2023-07-08T07:47:52.537Z,91.70
2023-07-08T07:50:20.798Z,91.90
2023-07-08T07:52:50.317Z,91.60
2023-07-08T07:55:18.580Z,91.90
2023-07-08T07:57:48.157Z,91.90
2023-07-08T08:00:16.934Z,92.10
2023-07-08T08:02:45.305Z,91.70
2023-07-08T08:05:13.260Z,91.00
2023-07-08T08:07:41.745Z,90.30
2023-07-08T08:10:11.802Z,88.90
2023-07-08T08:12:52.138Z,87.60
2023-07-08T08:15:22.463Z,86.90
2023-07-08T08:17:53.095Z,87.30
2023-07-08T08:20:22.708Z,87.80
2023-07-08T08:22:51.200Z,88.00
2023-07-08T08:25:23.266Z,88.40
2023-07-08T08:27:52.817Z,88.70
2023-07-08T08:30:21.376Z,89.10
2023-07-08T08:32:49.689Z,89.20
2023-07-08T08:35:17.939Z,89.60
2023-07-08T08:37:46.045Z,88.50
2023-07-08T08:40:19.749Z,88.30
2023-07-08T08:42:55.546Z,87.80
2023-07-08T08:45:26.721Z,87.00
2023-07-08T08:48:00.390Z,86.10
2023-07-08T08:50:32.551Z,84.80
2023-07-08T08:53:04.775Z,84.00
2023-07-08T08:55:33.415Z,82.80
2023-07-08T08:58:12.465Z,82.50
2023-07-08T09:00:49.617Z,82.00
2023-07-08T09:03:20.523Z,81.70
2023-07-08T09:05:49.613Z,81.30
2023-07-08T09:08:25.643Z,81.20
2023-07-08T09:11:02.281Z,80.30
2023-07-08T09:13:35.554Z,80.40
2023-07-08T09:16:09.612Z,80.70
2023-07-08T09:18:46.456Z,80.80
2023-07-08T09:21:21.683Z,80.60
2023-07-08T09:23:52.593Z,81.00
2023-07-08T09:26:24.831Z,81.40
2023-07-08T09:28:54.360Z,82.10
2023-07-08T09:31:26.399Z,80.80
2023-07-08T09:33:56.442Z,80.70
2023-07-08T09:36:26.733Z,81.30
2023-07-08T09:38:55.581Z,80.50
2023-07-08T09:41:35.327Z,79.80
2023-07-08T09:44:16.317Z,79.70
2023-07-08T09:46:45.053Z,79.30
2023-07-08T09:49:23.640Z,78.80
2023-07-08T09:51:52.557Z,78.70
2023-07-08T09:54:21.528Z,77.20
2023-07-08T09:57:00.326Z,76.10
2023-07-08T09:59:35.852Z,74.60
2023-07-08T10:02:18.731Z,72.50
2023-07-08T10:04:46.691Z,70.80
2023-07-08T10:07:19.145Z,67.80
2023-07-08T10:09:50.901Z,65.20
2023-07-08T10:12:19.497Z,63.60
2023-07-08T10:14:54.102Z,60.80
2023-07-08T10:17:23.735Z,58.10
2023-07-08T10:19:52.116Z,57.10
2023-07-08T10:22:37.293Z,56.00
2023-07-08T10:25:19.730Z,56.00
2023-07-08T10:27:54.803Z,54.70
2023-07-08T10:30:27.447Z,53.60
2023-07-08T10:33:22.501Z,52.50
2023-07-08T10:36:12.681Z,51.10
2023-07-08T10:38:57.804Z,49.90
2023-07-08T10:41:38.149Z,48.90
2023-07-08T10:44:14.662Z,48.20
2023-07-08T10:47:03.926Z,46.80
2023-07-08T10:49:43.294Z,46.40
2023-07-08T10:52:27.136Z,45.10
2023-07-08T10:55:07.689Z,45.30
2023-07-08T10:57:54.645Z,45.80
2023-07-08T11:00:30.581Z,46.30
2023-07-08T11:03:22.525Z,46.10
2023-07-08T11:05:58.888Z,45.60
2023-07-08T11:08:31.058Z,45.60
2023-07-08T11:11:14.842Z,45.00
2023-07-08T11:13:50.348Z,43.10
2023-07-08T11:16:26.511Z,44.70
2023-07-08T11:19:03.693Z,44.90
2023-07-08T11:21:37.706Z,45.30
2023-07-08T11:24:13.754Z,46.00
2023-07-08T11:26:48.381Z,46.40
2023-07-08T11:29:21.151Z,49.20
2023-07-08T11:31:51.025Z,50.70
2023-07-08T11:34:22.210Z,51.60
2023-07-08T11:36:51.309Z,52.10
2023-07-08T11:39:31.099Z,53.10
2023-07-08T11:42:13.692Z,54.20
2023-07-08T11:44:45.336Z,54.60
2023-07-08T11:47:18.994Z,55.90
2023-07-08T11:49:49.659Z,55.60
2023-07-08T11:52:21.162Z,56.30
2023-07-08T11:54:56.790Z,56.70
2023-07-08T11:57:32.104Z,57.20
2023-07-08T12:00:17.790Z,56.60
2023-07-08T12:02:56.230Z,57.60
2023-07-08T12:05:36.721Z,56.10
2023-07-08T12:08:13.653Z,55.30
2023-07-08T12:10:44.758Z,55.70
2023-07-08T12:13:16.784Z,56.00
2023-07-08T12:15:44.867Z,54.90
2023-07-08T12:18:17.416Z,55.80
2023-07-08T12:20:50.491Z,55.10
2023-07-08T12:23:22.995Z,55.60
2023-07-08T12:25:52.110Z,55.50
2023-07-08T12:28:21.361Z,54.40
2023-07-08T12:30:50.407Z,53.20
2023-07-08T12:33:24.218Z,53.60
2023-07-08T12:35:54.016Z,52.80
2023-07-08T12:38:29.404Z,52.10
2023-07-08T12:40:59.440Z,51.60
2023-07-08T12:43:28.519Z,50.40
2023-07-08T12:45:56.450Z,50.90
2023-07-08T12:48:24.939Z,50.50
2023-07-08T12:50:54.432Z,51.20
2023-07-08T12:53:22.381Z,51.40
2023-07-08T12:55:54.116Z,52.00
2023-07-08T12:58:28.565Z,53.30
2023-07-08T13:00:59.249Z,53.00
2023-07-08T13:03:31.578Z,53.10
2023-07-08T13:06:03.382Z,52.20
2023-07-08T13:08:40.063Z,52.90
2023-07-08T13:11:09.127Z,52.70
2023-07-08T13:13:40.564Z,52.60
2023-07-08T13:16:11.572Z,52.50
2023-07-08T13:18:42.285Z,52.40
2023-07-08T13:21:15.408Z,52.70
2023-07-08T13:23:43.985Z,51.90
2023-07-08T13:26:16.616Z,51.80
2023-07-08T13:28:46.395Z,52.60
2023-07-08T13:31:22.971Z,51.50
2023-07-08T13:33:54.565Z,49.70
2023-07-08T13:36:25.732Z,51.50
2023-07-08T13:38:54.255Z,52.10
2023-07-08T13:41:24.637Z,51.30
2023-07-08T13:43:53.043Z,51.90
2023-07-08T13:46:32.238Z,52.10
2023-07-08T13:49:04.623Z,52.80
2023-07-08T13:51:35.121Z,53.00
2023-07-08T13:54:11.179Z,52.20
2023-07-08T13:56:39.413Z,49.80
2023-07-08T13:59:09.014Z,49.80
2023-07-08T14:01:41.407Z,49.80
2023-07-08T14:04:11.873Z,50.40
2023-07-08T14:06:42.625Z,50.80
2023-07-08T14:09:16.412Z,50.70
2023-07-08T14:11:44.801Z,51.10
2023-07-08T14:14:13.207Z,51.40
2023-07-08T14:16:44.436Z,51.00
2023-07-08T14:19:17.922Z,50.30
2023-07-08T14:21:47.394Z,50.10
2023-07-08T14:24:16.918Z,50.50
2023-07-08T14:26:46.726Z,50.80
2023-07-08T14:29:15.582Z,51.10
2023-07-08T14:31:44.426Z,51.30
2023-07-08T14:34:19.203Z,51.30
2023-07-08T14:36:48.651Z,50.90
2023-07-08T14:39:18.200Z,50.90
2023-07-08T14:41:48.530Z,51.00
2023-07-08T14:44:23.369Z,50.70
2023-07-08T14:46:52.822Z,50.80
2023-07-08T14:49:22.798Z,49.50
2023-07-08T14:51:53.151Z,48.90
2023-07-08T14:54:22.126Z,49.00
2023-07-08T14:56:51.604Z,49.20
2023-07-08T14:59:23.129Z,49.10
2023-07-08T15:01:51.681Z,49.50
2023-07-08T15:04:20.386Z,48.30
2023-07-08T15:06:48.952Z,47.90
2023-07-08T15:09:19.198Z,47.40
2023-07-08T15:11:48.838Z,48.40
2023-07-08T15:14:21.962Z,47.90
2023-07-08T15:16:51.351Z,48.10
2023-07-08T15:19:19.897Z,48.90
2023-07-08T15:21:48.722Z,49.50
2023-07-08T15:24:18.664Z,49.00
2023-07-08T15:26:48.908Z,49.40
2023-07-08T15:29:19.387Z,49.10
2023-07-08T15:31:47.526Z,49.40
2023-07-08T15:34:16.868Z,49.40
2023-07-08T15:36:44.803Z,49.30
2023-07-08T15:39:14.550Z,49.60
2023-07-08T15:41:45.105Z,49.80
2023-07-08T15:44:14.269Z,49.60
2023-07-08T15:46:43.920Z,49.20
2023-07-08T15:49:16.698Z,49.30
2023-07-08T15:51:47.574Z,49.60
2023-07-08T15:54:17.552Z,50.20
2023-07-08T15:56:48.064Z,50.40
2023-07-08T15:59:19.997Z,51.60
2023-07-08T16:01:47.972Z,51.30
2023-07-08T16:04:24.919Z,50.70
2023-07-08T16:06:53.314Z,51.30
2023-07-08T16:09:21.430Z,51.50
2023-07-08T16:11:50.950Z,51.20
2023-07-08T16:14:20.369Z,51.50
2023-07-08T16:16:48.429Z,51.70
2023-07-08T16:19:17.031Z,51.40
2023-07-08T16:21:47.078Z,51.60
2023-07-08T16:24:15.096Z,51.90
2023-07-08T16:26:43.383Z,51.60
2023-07-08T16:29:18.056Z,51.60
2023-07-08T16:31:46.116Z,51.50
2023-07-08T16:34:15.736Z,51.60
2023-07-08T16:36:43.689Z,51.90
2023-07-08T16:39:11.670Z,52.00
2023-07-08T16:41:39.997Z,52.00
2023-07-08T16:44:17.085Z,52.00
2023-07-08T16:46:45.380Z,51.90
2023-07-08T16:49:13.687Z,52.60
2023-07-08T16:51:41.739Z,52.80
2023-07-08T16:54:15.533Z,52.70
2023-07-08T16:56:43.809Z,52.50
2023-07-08T16:59:13.055Z,53.20
2023-07-08T17:01:42.553Z,52.50
2023-07-08T17:04:13.571Z,53.10
2023-07-08T17:06:41.927Z,52.90
2023-07-08T17:09:12.410Z,53.10
2023-07-08T17:11:40.551Z,52.60
2023-07-08T17:14:10.218Z,52.10
2023-07-08T17:16:39.640Z,52.20
2023-07-08T17:19:11.984Z,52.50
2023-07-08T17:21:40.027Z,52.30
2023-07-08T17:24:11.624Z,52.50
2023-07-08T17:26:39.758Z,53.00
2023-07-08T17:29:07.610Z,53.40
2023-07-08T17:31:47.212Z,53.20
2023-07-08T17:34:22.292Z,52.60
2023-07-08T17:36:50.928Z,52.30
2023-07-08T17:39:19.058Z,52.60
2023-07-08T17:41:50.466Z,52.60
2023-07-08T17:44:18.762Z,52.60
2023-07-08T17:46:47.310Z,52.80
2023-07-08T17:49:16.563Z,52.90
2023-07-08T17:51:45.866Z,53.10
2023-07-08T17:54:15.940Z,53.60
2023-07-08T17:56:48.554Z,53.70
2023-07-08T17:59:19.204Z,54.20
2023-07-08T18:01:47.629Z,54.80
2023-07-08T18:04:15.614Z,56.10
2023-07-08T18:06:47.606Z,56.40
2023-07-08T18:09:15.571Z,56.80
2023-07-08T18:11:46.436Z,57.10
2023-07-08T18:14:15.436Z,57.70
2023-07-08T18:16:45.097Z,57.90
2023-07-08T18:21:57.710Z,57.90
2023-07-08T18:24:25.671Z,58.40
2023-07-08T18:26:53.600Z,59.30
2023-07-08T18:29:22.774Z,59.10
2023-07-08T18:31:51.017Z,59.40
2023-07-08T18:34:21.788Z,59.60
2023-07-08T18:36:49.749Z,60.00
2023-07-08T18:39:20.162Z,60.00
2023-07-08T18:41:49.530Z,60.20
2023-07-08T18:44:26.815Z,60.60
2023-07-08T18:46:55.516Z,59.80
2023-07-08T18:49:25.616Z,60.30
2023-07-08T18:51:54.146Z,61.60
2023-07-08T18:54:24.145Z,60.90
2023-07-08T18:56:52.139Z,61.20
2023-07-08T18:59:20.794Z,60.80
2023-07-08T19:01:50.921Z,61.50
2023-07-08T19:04:24.379Z,62.40
2023-07-08T19:06:52.405Z,62.40
2023-07-08T19:09:20.554Z,62.20
2023-07-08T19:11:50.149Z,62.30
2023-07-08T19:14:19.324Z,62.80
2023-07-08T19:16:47.959Z,63.00
2023-07-08T19:19:17.918Z,63.30
2023-07-08T19:21:46.642Z,64.00
2023-07-08T19:24:32.012Z,64.40
2023-07-08T19:27:06.582Z,65.30
2023-07-08T19:29:34.499Z,65.60
2023-07-08T19:32:02.661Z,65.80
2023-07-08T19:34:32.791Z,65.20
2023-07-08T19:37:00.916Z,65.30
2023-07-08T19:39:28.787Z,65.70
2023-07-08T19:41:56.951Z,65.70
2023-07-08T19:44:27.658Z,66.20
2023-07-08T19:46:56.880Z,67.00
2023-07-08T19:49:25.456Z,67.80
2023-07-08T19:51:53.664Z,68.00
2023-07-08T19:54:22.577Z,68.90
2023-07-08T19:56:50.811Z,68.40
2023-07-08T19:59:19.249Z,70.50
2023-07-08T20:01:48.746Z,69.00
2023-07-08T20:04:17.956Z,70.10
2023-07-08T20:06:46.828Z,70.60
2023-07-08T20:09:16.275Z,71.00
2023-07-08T20:11:44.929Z,71.10
2023-07-08T20:14:13.401Z,71.50
2023-07-08T20:16:43.483Z,71.80
2023-07-08T20:19:21.038Z,72.70
2023-07-08T20:21:49.183Z,73.60
2023-07-08T20:24:17.170Z,74.80
2023-07-08T20:26:45.832Z,74.20
2023-07-08T20:29:18.235Z,73.10
2023-07-08T20:31:46.820Z,73.10
2023-07-08T20:34:18.896Z,74.60
2023-07-08T20:36:48.671Z,75.00
2023-07-08T20:39:22.480Z,75.00
2023-07-08T20:41:50.874Z,74.10
2023-07-08T20:44:20.078Z,73.80
2023-07-08T20:46:49.911Z,74.40
2023-07-08T20:49:19.214Z,73.50
2023-07-08T20:51:48.771Z,74.30
2023-07-08T20:54:16.698Z,72.90
2023-07-08T20:56:45.097Z,74.10
2023-07-08T20:59:17.921Z,74.10
2023-07-08T21:01:46.036Z,75.00
2023-07-08T21:04:14.103Z,74.00
2023-07-08T21:06:42.164Z,74.20
2023-07-08T21:09:14.688Z,74.10
2023-07-08T21:11:42.652Z,74.70
2023-07-08T21:14:10.794Z,74.60
2023-07-08T21:16:39.152Z,74.80
2023-07-08T21:19:07.203Z,73.90
2023-07-08T21:21:35.312Z,74.20
2023-07-08T21:24:03.484Z,74.30
2023-07-08T21:26:34.274Z,74.40
2023-07-08T21:29:04.089Z,74.40
2023-07-08T21:31:32.836Z,75.70
2023-07-08T21:34:00.873Z,75.60
2023-07-08T21:36:33.984Z,75.60
2023-07-08T21:39:05.095Z,75.80
2023-07-08T21:41:35.182Z,75.90
2023-07-08T21:44:03.313Z,76.10
2023-07-08T21:46:31.598Z,76.50
2023-07-08T21:49:00.210Z,76.40
2023-07-08T21:51:31.543Z,76.90
2023-07-08T21:54:00.259Z,77.50
2023-07-08T21:56:28.554Z,77.80
2023-07-08T21:58:58.014Z,78.30
2023-07-08T22:01:28.055Z,79.20
2023-07-08T22:03:57.386Z,79.70
2023-07-08T22:06:26.774Z,79.60
2023-07-08T22:08:55.794Z,80.00
2023-07-08T22:11:30.686Z,80.20
2023-07-08T22:14:00.873Z,80.30
2023-07-08T22:16:30.916Z,80.60
2023-07-08T22:18:59.630Z,81.10
2023-07-08T22:21:30.549Z,81.60
2023-07-08T22:23:59.515Z,82.50
2023-07-08T22:26:28.169Z,83.50
2023-07-08T22:28:56.378Z,84.20
2023-07-08T22:31:29.695Z,84.80
2023-07-08T22:33:58.088Z,85.40
2023-07-08T22:36:26.226Z,86.20
2023-07-08T22:39:01.783Z,86.90
2023-07-08T22:41:32.964Z,87.60
2023-07-08T22:44:01.044Z,88.00
2023-07-08T22:46:30.445Z,88.70
2023-07-08T22:49:01.583Z,89.10
2023-07-08T22:51:32.964Z,89.70
2023-07-08T22:54:01.097Z,90.10
2023-07-08T22:56:29.059Z,90.30
2023-07-08T22:58:56.938Z,90.60
2023-07-08T23:01:24.848Z,90.80
2023-07-08T23:03:54.139Z,91.10
2023-07-08T23:06:25.896Z,91.60
2023-07-08T23:08:54.074Z,91.80
2023-07-08T23:11:22.842Z,92.00
2023-07-08T23:13:51.304Z,92.40
2023-07-08T23:16:31.216Z,92.70
2023-07-08T23:19:02.538Z,92.90
2023-07-08T23:21:31.523Z,93.20
2023-07-08T23:23:59.726Z,93.60
2023-07-08T23:26:31.532Z,93.90
2023-07-08T23:29:01.005Z,94.20
2023-07-08T23:31:30.919Z,94.70
2023-07-08T23:34:01.230Z,95.00
2023-07-08T23:36:34.897Z,95.40
2023-07-08T23:39:06.672Z,95.50
2023-07-08T23:41:34.753Z,95.80
2023-07-08T23:44:02.828Z,96.00
2023-07-08T23:46:33.091Z,96.30
2023-07-08T23:49:05.828Z,96.50
2023-07-08T23:51:33.919Z,96.70
2023-07-08T23:54:01.866Z,96.90
2023-07-08T23:56:34.552Z,97.10
2023-07-08T23:59:04.424Z,97.60
